< < Back
Terminal Aerodrome Forecast


Current Version              Previous Versions:   1  2  3  4  5  6  7  8  9  

Terminal Aerodrome Forecast

464
FTUS44 KBMX 301400 AAA
TAFANB
TAF AMD
KANB 301412Z 3014/3112 00000KT 3/4SM BR OVC002
     FM301445 01003KT 4SM BR SKC
     FM301500 01003KT P6SM SKC
     FM310300 34007KT P6SM SCT150=

Latest METAR

148
SAUS70 KWBC 301700 RRG
MTRANB
METAR KANB 301653Z AUTO 36007KT 10SM CLR 17/04 A3011 RMK AO2 SLP196
T01720039


USA.gov is the U.S. government's official web portal to all federal, state and local government web resources and services.